Time;durP1;ratioP1;P1;durP2;ratioP2;P2;SDS_P1;SDS_P2;PMS_P1;PMS_P2;Temp;Humidity;BMP_temperature;BMP_pressure;BME280_temperature;BME280_humidity;BME280_pressure;Samples;Min_cycle;Max_cycle;Signal;HPM_P1;HPM_P2
2023/01/28 00:00:30;;;;;;;7.07;6.47;;;;;;;1.64;66.36;94268.69;5049080;28;20223;-67
2023/01/28 00:02:55;;;;;;;7.50;6.87;;;;;;;1.67;66.74;94253.72;5047297;28;20251;-67
2023/01/28 00:05:22;;;;;;;7.03;6.43;;;;;;;1.58;66.48;94264.81;5046756;28;20199;-67
2023/01/28 00:07:49;;;;;;;7.03;6.43;;;;;;;1.51;66.81;94266.19;5047164;28;20260;-67
2023/01/28 00:10:14;;;;;;;7.23;6.57;;;;;;;1.54;66.67;94263.38;5051437;28;20229;-67
2023/01/28 00:12:40;;;;;;;7.17;6.57;;;;;;;1.62;65.57;94273.97;5052802;28;20270;-66
2023/01/28 00:15:06;;;;;;;6.93;6.23;;;;;;;1.59;66.19;94276.00;5050754;28;20266;-66
2023/01/28 00:17:57;;;;;;;6.87;6.27;;;;;;;1.63;66.15;94282.56;5051481;28;20247;-66
2023/01/28 00:20:22;;;;;;;6.97;6.37;;;;;;;1.51;66.37;94286.94;5046868;28;20226;-66
2023/01/28 00:22:48;;;;;;;7.00;6.30;;;;;;;1.45;66.75;94283.03;5046773;28;20217;-66
2023/01/28 00:25:14;;;;;;;6.73;6.13;;;;;;;0.94;68.74;94285.13;5046562;28;20271;-66
2023/01/28 00:27:40;;;;;;;6.83;6.23;;;;;;;0.80;69.08;94286.94;5050227;28;20225;-66
2023/01/28 00:30:06;;;;;;;6.83;6.23;;;;;;;0.68;69.75;94279.25;5051770;28;20181;-66
2023/01/28 00:32:31;;;;;;;7.07;6.37;;;;;;;0.82;69.22;94279.88;5050367;28;20280;-65
2023/01/28 00:34:57;;;;;;;6.50;5.90;;;;;;;0.91;68.73;94280.13;5049549;28;20308;-66
2023/01/28 00:37:22;;;;;;;7.37;6.77;;;;;;;0.84;69.24;94285.78;5044415;28;20210;-66
2023/01/28 00:39:48;;;;;;;6.70;6.10;;;;;;;1.10;68.41;94288.25;5049027;28;20220;-66
2023/01/28 00:42:14;;;;;;;7.07;6.47;;;;;;;1.27;67.95;94297.34;5050511;28;20228;-67
2023/01/28 00:44:40;;;;;;;7.10;6.50;;;;;;;1.43;67.25;94295.25;5045028;28;20220;-66
2023/01/28 00:47:05;;;;;;;6.63;6.03;;;;;;;1.17;67.90;94296.38;5050250;28;20319;-67
2023/01/28 00:49:31;;;;;;;6.77;6.17;;;;;;;1.23;67.54;94295.91;5048851;28;20264;-66
2023/01/28 00:51:56;;;;;;;7.07;6.43;;;;;;;1.38;66.79;94299.13;5055794;28;20213;-67
2023/01/28 00:54:21;;;;;;;6.70;6.00;;;;;;;1.03;67.60;94300.78;5056877;28;20217;-68
2023/01/28 00:56:47;;;;;;;6.60;6.00;;;;;;;1.08;67.74;94303.88;5054155;28;20182;-67
2023/01/28 00:59:12;;;;;;;6.33;5.73;;;;;;;0.94;68.26;94305.84;5052039;28;20221;-67
2023/01/28 01:01:38;;;;;;;6.80;6.17;;;;;;;1.09;67.75;94302.91;5055396;28;20221;-67
2023/01/28 01:04:04;;;;;;;7.37;6.67;;;;;;;0.84;68.29;94303.06;5051615;28;20256;-68
2023/01/28 01:06:29;;;;;;;6.60;6.00;;;;;;;0.99;68.42;94301.13;5053817;28;20233;-67
2023/01/28 01:08:55;;;;;;;6.77;6.17;;;;;;;1.20;67.60;94294.38;5061024;28;20223;-66
2023/01/28 01:11:20;;;;;;;6.43;5.83;;;;;;;1.21;67.54;94298.63;5053513;28;20207;-67
2023/01/28 01:13:58;;;;;;;6.53;5.93;;;;;;;1.07;67.50;94306.59;5050184;28;20221;-67
2023/01/28 01:16:28;;;;;;;6.67;6.10;;;;;;;0.98;68.33;94300.28;5050376;28;20228;-67
2023/01/28 01:18:55;;;;;;;6.57;5.90;;;;;;;0.75;68.54;94299.38;5055141;28;20244;-67
2023/01/28 01:21:23;;;;;;;6.73;6.13;;;;;;;0.97;68.30;94303.00;5053959;28;20216;-67
2023/01/28 01:23:49;;;;;;;7.23;6.63;;;;;;;1.05;68.24;94308.47;5054855;28;20192;-66
2023/01/28 01:26:15;;;;;;;7.13;6.53;;;;;;;0.77;68.83;94305.25;5052262;28;20188;-67
2023/01/28 01:28:41;;;;;;;6.80;6.20;;;;;;;0.80;68.72;94299.88;5049922;28;20272;-66
2023/01/28 01:31:12;;;;;;;7.07;6.47;;;;;;;0.85;68.67;94308.13;5053996;28;20223;-67
2023/01/28 01:33:38;;;;;;;7.00;6.40;;;;;;;0.78;69.06;94300.94;5056665;28;20247;-68
2023/01/28 01:36:04;;;;;;;7.73;7.03;;;;;;;0.72;69.31;94309.94;5049816;28;20217;-67
2023/01/28 01:38:30;;;;;;;7.60;7.00;;;;;;;0.96;68.31;94311.69;5056297;28;20590;-68
2023/01/28 01:41:00;;;;;;;7.53;6.83;;;;;;;1.04;68.07;94310.22;5056574;28;20221;-67
2023/01/28 01:43:55;;;;;;;6.63;6.03;;;;;;;1.00;68.22;94305.38;5050618;28;20300;-68
2023/01/28 01:46:40;;;;;;;8.10;6.90;;;;;;;0.80;68.86;94305.06;5055025;28;20275;-67
2023/01/28 01:49:19;;;;;;;6.90;6.30;;;;;;;0.67;69.17;94304.28;5048808;28;20222;-67
2023/01/28 01:51:48;;;;;;;6.77;6.27;;;;;;;1.03;68.16;94310.31;5046943;28;20209;-68
2023/01/28 01:54:15;;;;;;;6.73;6.23;;;;;;;0.93;68.78;94309.34;5049916;28;20224;-69
2023/01/28 01:56:43;;;;;;;7.10;6.47;;;;;;;0.81;68.55;94306.69;5050076;28;20221;-68
2023/01/28 01:59:16;;;;;;;8.00;7.30;;;;;;;0.76;69.14;94303.63;5051849;28;20217;-68
2023/01/28 02:01:44;;;;;;;6.90;6.30;;;;;;;1.06;68.27;94320.44;5049974;28;20244;-68
2023/01/28 02:04:17;;;;;;;7.50;6.80;;;;;;;1.12;67.72;94320.00;5051766;28;20217;-67
2023/01/28 02:06:44;;;;;;;7.43;6.73;;;;;;;0.93;68.05;94311.94;5050362;28;20291;-67
2023/01/28 02:09:25;;;;;;;7.47;6.77;;;;;;;0.83;68.60;94315.19;5048444;28;20236;-68
2023/01/28 02:11:55;;;;;;;7.03;6.43;;;;;;;1.00;67.90;94326.09;5051871;28;20204;-67
2023/01/28 02:14:23;;;;;;;7.03;6.43;;;;;;;0.79;68.91;94328.44;5049482;28;20269;-66
2023/01/28 02:16:49;;;;;;;7.77;7.07;;;;;;;1.02;68.50;94330.22;5046740;28;20224;-68
2023/01/28 02:19:18;;;;;;;5.93;5.33;;;;;;;1.08;68.18;94318.59;5046682;28;20249;-68
2023/01/28 02:22:10;;;;;;;6.37;5.80;;;;;;;0.95;68.35;94328.19;5049598;28;20214;-67
2023/01/28 02:24:41;;;;;;;6.07;5.57;;;;;;;0.88;67.44;94322.59;5049015;28;20221;-67
2023/01/28 02:27:31;;;;;;;6.40;5.80;;;;;;;0.82;68.53;94328.22;5048673;28;20213;-68
2023/01/28 02:30:09;;;;;;;6.70;6.10;;;;;;;0.92;68.32;94324.03;5059103;28;20209;-68
2023/01/28 02:32:53;;;;;;;6.23;5.63;;;;;;;1.21;67.17;94340.06;5053024;28;20194;-68
2023/01/28 02:35:26;;;;;;;7.37;6.67;;;;;;;1.02;67.50;94326.81;5050663;28;20238;-67
2023/01/28 02:38:02;;;;;;;7.00;6.30;;;;;;;0.87;67.95;94320.97;5047743;28;20304;-67
2023/01/28 02:40:33;;;;;;;7.07;6.47;;;;;;;0.91;67.84;94325.00;5044745;28;20228;-68
2023/01/28 02:42:58;;;;;;;6.20;5.70;;;;;;;0.68;68.85;94330.97;5050401;28;20282;-67
2023/01/28 02:47:56;;;;;;;6.53;6.03;;;;;;;0.87;68.20;94326.13;5055544;28;20289;-66
2023/01/28 02:48:17;;;;;;;6.90;6.30;;;;;;;0.74;68.10;94341.72;5056054;28;20370;-66
2023/01/28 02:50:54;;;;;;;6.53;5.93;;;;;;;0.88;67.93;94326.03;5046114;28;20225;-67
2023/01/28 02:53:45;;;;;;;7.40;6.70;;;;;;;0.81;68.15;94332.59;5050346;28;20220;-67
2023/01/28 02:56:18;;;;;;;6.13;5.63;;;;;;;0.75;68.37;94327.84;5040976;28;20229;-67
2023/01/28 02:58:47;;;;;;;6.70;6.10;;;;;;;0.82;68.11;94323.06;5047505;28;20213;-67
2023/01/28 03:01:24;;;;;;;6.80;6.17;;;;;;;0.94;67.59;94331.72;5052294;28;20220;-67
2023/01/28 03:04:03;;;;;;;6.60;6.00;;;;;;;1.00;67.22;94339.84;5052125;28;20362;-67
2023/01/28 03:06:51;;;;;;;6.57;5.97;;;;;;;1.15;66.34;94343.09;5049854;28;20275;-66
2023/01/28 03:09:27;;;;;;;6.83;6.23;;;;;;;1.04;66.87;94333.53;5046703;28;20228;-66
2023/01/28 03:38:19;;;;;;;6.23;5.67;;;;;;;1.00;66.92;94342.44;5050674;28;20224;-66
2023/01/28 03:40:57;;;;;;;6.23;5.73;;;;;;;0.81;67.56;94355.88;5049472;28;20315;-67
2023/01/28 03:43:23;;;;;;;6.50;5.90;;;;;;;1.02;66.99;94353.53;5051204;28;20246;-66
2023/01/28 03:45:52;;;;;;;6.50;5.90;;;;;;;0.87;67.08;94347.66;5047405;28;20221;-67
2023/01/28 03:48:18;;;;;;;6.53;5.93;;;;;;;0.94;66.64;94342.06;5051582;28;20249;-67
2023/01/28 03:50:44;;;;;;;6.90;6.30;;;;;;;0.52;68.13;94354.53;5049279;28;20310;-67
2023/01/28 03:53:13;;;;;;;6.93;6.33;;;;;;;0.60;68.62;94365.16;5046380;28;20300;-67
2023/01/28 03:55:38;;;;;;;6.00;5.50;;;;;;;0.61;68.30;94359.03;5053086;28;20220;-67
2023/01/28 03:58:04;;;;;;;7.10;6.50;;;;;;;0.61;68.46;94359.03;5050343;28;20251;-67
2023/01/28 04:00:36;;;;;;;6.90;6.30;;;;;;;0.55;68.76;94362.06;5051108;28;20228;-67
2023/01/28 04:03:03;;;;;;;7.23;6.63;;;;;;;0.57;68.79;94379.13;5049006;28;20201;-66
2023/01/28 04:05:29;;;;;;;6.90;6.20;;;;;;;0.69;68.25;94364.50;5051572;28;20193;-67
2023/01/28 04:07:54;;;;;;;7.03;6.43;;;;;;;0.56;68.18;94358.53;5049797;28;20329;-67
2023/01/28 04:10:20;;;;;;;7.10;6.50;;;;;;;0.46;68.51;94367.88;5051582;28;20223;-67
2023/01/28 04:12:48;;;;;;;6.90;6.30;;;;;;;0.38;69.05;94361.47;5050327;28;20311;-67
2023/01/28 04:15:15;;;;;;;6.60;6.00;;;;;;;0.59;68.63;94371.28;5052783;28;20210;-66
2023/01/28 04:17:45;;;;;;;6.97;6.33;;;;;;;0.76;67.87;94375.25;5050053;28;20192;-66
2023/01/28 04:20:11;;;;;;;6.30;5.70;;;;;;;0.74;67.33;94377.94;5051137;28;20251;-66
2023/01/28 04:22:37;;;;;;;6.93;6.33;;;;;;;0.72;67.72;94372.03;5050569;28;20221;-66
2023/01/28 04:25:03;;;;;;;6.90;6.00;;;;;;;0.69;67.68;94380.03;5049265;28;20286;-66
2023/01/28 04:27:28;;;;;;;6.47;5.97;;;;;;;0.64;67.38;94388.13;5044419;28;20240;-66
2023/01/28 04:29:53;;;;;;;6.63;6.13;;;;;;;0.83;67.08;94371.31;5046633;28;20197;-66
2023/01/28 04:32:19;;;;;;;7.20;6.60;;;;;;;0.96;66.61;94382.41;5055026;28;20213;-66
2023/01/28 04:34:44;;;;;;;6.23;5.73;;;;;;;0.84;67.52;94384.13;5051874;28;20442;-66
2023/01/28 04:37:10;;;;;;;7.47;6.77;;;;;;;0.79;67.74;94375.84;5049843;28;20230;-66
2023/01/28 04:39:35;;;;;;;7.47;6.77;;;;;;;0.52;68.40;94394.16;5053164;28;20221;-65
2023/01/28 04:42:00;;;;;;;6.23;5.73;;;;;;;0.55;68.48;94395.69;5051626;28;20283;-67
2023/01/28 04:44:26;;;;;;;6.60;6.00;;;;;;;0.41;69.32;94400.06;5049669;28;20195;-66
2023/01/28 04:46:51;;;;;;;6.90;6.20;;;;;;;0.25;70.38;94401.22;5047948;28;20222;-66
2023/01/28 04:49:17;;;;;;;6.83;6.23;;;;;;;0.52;69.48;94404.50;5047989;28;20221;-66
2023/01/28 04:51:42;;;;;;;6.87;6.27;;;;;;;0.16;70.26;94410.41;5048690;28;20221;-67
2023/01/28 04:54:08;;;;;;;7.17;6.57;;;;;;;0.39;69.86;94404.50;5056831;28;20231;-67
2023/01/28 04:56:33;;;;;;;7.00;6.40;;;;;;;0.35;69.88;94413.41;5049221;28;20674;-67
2023/01/28 04:58:59;;;;;;;6.93;6.33;;;;;;;0.33;70.35;94414.47;5047199;28;20223;-67
2023/01/28 05:01:24;;;;;;;7.37;6.73;;;;;;;0.32;70.08;94413.63;5049878;28;20999;-67
2023/01/28 05:03:50;;;;;;;7.13;6.43;;;;;;;0.32;70.41;94413.63;5051951;28;20239;-68
2023/01/28 05:06:15;;;;;;;6.70;6.13;;;;;;;0.55;69.83;94416.38;5051268;28;20236;-69
2023/01/28 05:08:41;;;;;;;7.67;6.97;;;;;;;0.63;69.68;94416.69;5051017;28;20284;-68
2023/01/28 05:11:06;;;;;;;6.83;6.23;;;;;;;0.67;69.33;94423.31;5047314;28;20227;-66
2023/01/28 05:13:32;;;;;;;6.73;6.13;;;;;;;0.70;69.27;94423.09;5051734;28;20231;-68
2023/01/28 05:15:57;;;;;;;6.33;5.77;;;;;;;0.46;69.44;94420.44;5050287;28;20226;-66
2023/01/28 05:18:23;;;;;;;7.33;6.70;;;;;;;0.58;69.23;94431.69;5047875;28;20224;-68
2023/01/28 05:20:48;;;;;;;7.13;6.43;;;;;;;0.58;69.41;94429.09;5045476;28;20224;-68
2023/01/28 05:23:14;;;;;;;6.80;6.20;;;;;;;0.62;68.93;94425.38;5050407;28;20197;-67
2023/01/28 05:25:39;;;;;;;7.23;6.53;;;;;;;0.63;68.75;94430.44;5045522;28;20217;-67
2023/01/28 05:28:05;;;;;;;6.87;6.20;;;;;;;0.72;68.32;94431.56;5051520;28;20237;-67
2023/01/28 05:30:30;;;;;;;6.73;6.20;;;;;;;0.86;67.85;94441.78;5047623;28;20248;-67
2023/01/28 05:32:56;;;;;;;6.63;6.03;;;;;;;0.54;68.10;94444.03;5050229;28;20205;-66
2023/01/28 05:35:22;;;;;;;7.17;6.47;;;;;;;0.55;68.46;94439.66;5048769;28;20213;-67
2023/01/28 05:37:47;;;;;;;6.57;6.07;;;;;;;0.48;68.58;94444.41;5049599;28;20221;-67
2023/01/28 05:40:13;;;;;;;6.90;6.30;;;;;;;0.54;68.78;94443.19;5050061;28;20250;-67
2023/01/28 05:42:38;;;;;;;6.60;6.00;;;;;;;0.41;68.16;94446.63;5050405;28;20229;-67
2023/01/28 05:45:04;;;;;;;7.27;6.67;;;;;;;0.32;69.46;94444.66;5053934;28;20251;-67
2023/01/28 05:47:30;;;;;;;7.47;6.83;;;;;;;0.35;68.86;94441.88;5052797;28;20209;-66
2023/01/28 05:49:55;;;;;;;8.00;6.63;;;;;;;0.33;68.72;94451.47;5054119;28;20234;-67
2023/01/28 05:52:21;;;;;;;6.80;6.20;;;;;;;0.25;68.91;94442.59;5050577;28;20214;-67
2023/01/28 05:54:47;;;;;;;7.20;6.50;;;;;;;0.31;68.70;94447.34;5055890;28;20246;-66
2023/01/28 05:57:12;;;;;;;7.10;6.43;;;;;;;-0.04;69.66;94445.38;5050757;28;20248;-67
2023/01/28 05:59:38;;;;;;;7.73;7.03;;;;;;;0.46;68.11;94453.25;5054859;28;20200;-67
2023/01/28 06:02:03;;;;;;;7.10;6.40;;;;;;;0.40;67.96;94454.47;5051635;28;20217;-67
2023/01/28 06:04:29;;;;;;;7.17;6.53;;;;;;;0.33;68.06;94456.66;5051795;28;20222;-67
2023/01/28 06:06:54;;;;;;;6.93;6.27;;;;;;;0.28;68.85;94466.47;5053096;28;20229;-66
2023/01/28 06:09:20;;;;;;;6.93;6.23;;;;;;;0.41;68.50;94479.41;5053340;28;20243;-66
2023/01/28 06:11:45;;;;;;;7.10;6.40;;;;;;;0.48;67.93;94477.22;5053827;28;20190;-66
2023/01/28 06:14:10;;;;;;;6.37;5.77;;;;;;;0.49;67.59;94473.72;5056068;28;20221;-66
2023/01/28 06:16:36;;;;;;;7.10;6.50;;;;;;;0.48;67.70;94479.81;5053885;28;20238;-67
2023/01/28 06:19:01;;;;;;;7.07;5.87;;;;;;;0.72;66.87;94485.91;5052931;28;20222;-66
2023/01/28 06:21:27;;;;;;;7.60;6.90;;;;;;;0.57;67.36;94489.56;5052538;28;20290;-66
2023/01/28 06:23:52;;;;;;;7.60;6.90;;;;;;;0.41;68.47;94495.75;5055014;28;20216;-68
2023/01/28 06:26:18;;;;;;;7.03;6.43;;;;;;;0.65;67.48;94502.78;5055576;28;20201;-68
2023/01/28 06:28:43;;;;;;;6.80;6.20;;;;;;;0.74;67.46;94507.31;5052614;28;20278;-68
2023/01/28 06:31:09;;;;;;;7.53;6.83;;;;;;;0.75;66.89;94501.25;5052525;28;20217;-68
2023/01/28 06:33:34;;;;;;;7.17;6.57;;;;;;;0.73;67.22;94503.09;5051679;28;20243;-68
2023/01/28 06:36:03;;;;;;;6.97;6.37;;;;;;;0.76;67.41;94510.66;5054846;28;20220;-68
2023/01/28 06:38:29;;;;;;;8.00;7.30;;;;;;;0.83;66.93;94516.25;5052520;28;20185;-68
2023/01/28 06:40:54;;;;;;;6.50;6.00;;;;;;;0.83;66.66;94506.72;5055496;28;20214;-68
2023/01/28 06:43:27;;;;;;;7.27;6.60;;;;;;;0.98;66.00;94515.16;5052754;28;20248;-67
2023/01/28 06:45:56;;;;;;;7.53;6.73;;;;;;;0.92;65.79;94522.53;5049038;28;20217;-67
2023/01/28 06:48:23;;;;;;;7.60;6.90;;;;;;;0.74;66.29;94522.84;5049649;28;20220;-68
2023/01/28 06:50:49;;;;;;;8.00;7.20;;;;;;;0.76;66.52;94531.34;5052303;28;20189;-68
2023/01/28 06:53:16;;;;;;;7.17;6.47;;;;;;;0.87;66.19;94531.44;5053308;28;20613;-68
2023/01/28 06:55:41;;;;;;;8.00;7.30;;;;;;;0.79;66.51;94531.13;5050024;28;20214;-68
2023/01/28 06:58:07;;;;;;;7.53;6.87;;;;;;;0.87;66.29;94536.59;5051616;28;20224;-68
2023/01/28 07:00:32;;;;;;;7.80;7.00;;;;;;;0.97;65.51;94536.00;5051666;28;20225;-68
2023/01/28 07:02:57;;;;;;;9.67;8.13;;;;;;;0.99;65.85;94540.13;5054177;28;20196;-69
2023/01/28 07:05:23;;;;;;;9.07;8.17;;;;;;;0.87;66.41;94541.78;5049454;28;20182;-68
2023/01/28 07:07:48;;;;;;;8.97;8.07;;;;;;;0.88;66.22;94543.47;5054494;28;20219;-67
2023/01/28 07:10:14;;;;;;;8.50;7.70;;;;;;;0.87;66.06;94546.97;5049454;28;20221;-66
2023/01/28 07:12:40;;;;;;;8.73;7.93;;;;;;;0.66;67.00;94551.00;5049665;28;20319;-67
2023/01/28 07:15:06;;;;;;;9.10;7.33;;;;;;;0.65;67.02;94546.78;5053467;28;20196;-67
2023/01/28 07:17:32;;;;;;;9.10;8.20;;;;;;;0.57;67.15;94569.75;5049897;28;20181;-67
2023/01/28 07:19:57;;;;;;;7.57;6.87;;;;;;;0.65;67.16;94562.31;5050982;28;20236;-67
2023/01/28 07:22:23;;;;;;;7.73;7.00;;;;;;;0.98;65.94;94561.75;5052984;28;20217;-66
2023/01/28 07:24:48;;;;;;;8.60;7.73;;;;;;;1.02;66.31;94575.34;5047840;28;20232;-66
2023/01/28 07:27:14;;;;;;;8.93;8.03;;;;;;;0.90;66.26;94565.81;5050692;28;20304;-68
2023/01/28 07:29:39;;;;;;;9.03;8.13;;;;;;;0.86;66.48;94575.56;5054926;28;20189;-69
2023/01/28 07:32:06;;;;;;;7.70;7.00;;;;;;;0.74;66.73;94569.44;5049388;28;20228;-68
2023/01/28 07:34:32;;;;;;;8.50;7.70;;;;;;;1.02;66.11;94578.75;5051402;28;20249;-68
2023/01/28 07:36:57;;;;;;;8.47;7.67;;;;;;;0.46;67.40;94590.34;5050121;28;20210;-69
2023/01/28 07:39:23;;;;;;;8.10;7.33;;;;;;;0.52;67.44;94577.81;5057026;28;20283;-70
2023/01/28 07:41:48;;;;;;;8.10;7.40;;;;;;;0.60;66.90;94585.06;5047406;28;20189;-67
2023/01/28 07:44:14;;;;;;;9.27;8.37;;;;;;;0.55;67.21;94584.53;5048650;28;20200;-66
2023/01/28 07:46:39;;;;;;;8.87;8.07;;;;;;;0.68;66.63;94584.56;5051066;28;20313;-67
2023/01/28 07:49:05;;;;;;;8.63;7.87;;;;;;;0.69;66.81;94586.22;5048187;28;20235;-67
2023/01/28 07:51:30;;;;;;;9.37;8.47;;;;;;;0.59;67.59;94591.19;5053749;28;20210;-68
2023/01/28 07:53:56;;;;;;;8.43;7.73;;;;;;;0.91;66.39;94598.53;5052721;28;20243;-66
2023/01/28 07:56:22;;;;;;;9.57;8.57;;;;;;;1.15;65.83;94604.66;5050318;28;20205;-68
2023/01/28 07:58:50;;;;;;;8.97;8.17;;;;;;;1.03;65.49;94601.13;5048898;28;20275;-67
2023/01/28 08:01:17;;;;;;;8.57;7.77;;;;;;;1.07;65.90;94596.56;5050564;28;20223;-68
2023/01/28 08:03:42;;;;;;;8.57;7.83;;;;;;;1.01;66.24;94597.78;5051222;28;20245;-68
2023/01/28 08:06:08;;;;;;;8.90;8.10;;;;;;;1.23;65.23;94597.19;5048259;28;20222;-67
2023/01/28 08:08:33;;;;;;;9.70;8.80;;;;;;;1.34;64.47;94596.44;5049327;28;20220;-66
2023/01/28 08:11:07;;;;;;;9.47;8.57;;;;;;;1.22;64.97;94598.09;5048450;28;20220;-68
2023/01/28 08:13:33;;;;;;;8.43;7.63;;;;;;;1.16;65.01;94601.09;5049307;28;20328;-66
2023/01/28 08:15:58;;;;;;;9.27;8.37;;;;;;;1.33;64.33;94602.53;5048465;28;20216;-66
2023/01/28 08:18:24;;;;;;;8.70;7.93;;;;;;;1.48;63.51;94616.19;5047244;28;20209;-67
2023/01/28 08:20:54;;;;;;;8.93;8.13;;;;;;;1.27;64.66;94618.50;5052504;28;20229;-67
2023/01/28 08:23:20;;;;;;;8.77;7.97;;;;;;;1.38;64.16;94612.59;5048466;28;20201;-68
2023/01/28 08:25:46;;;;;;;9.10;8.27;;;;;;;1.39;64.02;94622.00;5048388;28;20214;-67
2023/01/28 08:28:13;;;;;;;8.37;7.57;;;;;;;1.57;63.26;94619.91;5046294;28;20226;-66
2023/01/28 08:30:39;;;;;;;8.13;7.33;;;;;;;1.43;63.69;94613.91;5052184;28;20289;-64
2023/01/28 08:33:10;;;;;;;7.63;6.93;;;;;;;1.31;63.96;94620.78;5051385;28;20275;-67
2023/01/28 08:35:36;;;;;;;9.30;8.33;;;;;;;1.44;64.13;94615.56;5051636;28;20186;-69
2023/01/28 08:38:04;;;;;;;8.43;7.67;;;;;;;1.40;64.32;94621.09;5046160;28;20216;-67
2023/01/28 08:40:30;;;;;;;8.13;7.40;;;;;;;1.52;63.48;94622.81;5040012;28;20233;-66
2023/01/28 08:42:56;;;;;;;8.83;8.03;;;;;;;1.15;64.31;94620.19;5047368;28;20217;-67
2023/01/28 08:45:24;;;;;;;8.73;7.93;;;;;;;1.33;64.65;94618.06;5050352;28;20278;-67
2023/01/28 08:48:00;;;;;;;8.60;7.80;;;;;;;1.71;63.29;94615.41;5049820;28;20271;-68
2023/01/28 08:50:29;;;;;;;7.77;7.03;;;;;;;2.01;61.72;94610.75;5052688;28;20192;-67
2023/01/28 08:53:00;;;;;;;7.70;7.00;;;;;;;1.98;61.83;94615.22;5068085;28;20279;-67
2023/01/28 08:55:27;;;;;;;7.63;6.93;;;;;;;2.09;61.66;94618.81;5050237;28;20244;-68
2023/01/28 08:57:53;;;;;;;8.47;7.67;;;;;;;1.58;63.39;94622.41;5030631;28;21250;-67
2023/01/28 09:00:20;;;;;;;8.23;7.47;;;;;;;1.84;62.84;94611.94;5038572;28;20304;-66
2023/01/28 09:02:46;;;;;;;7.43;6.73;;;;;;;1.84;62.63;94630.09;5041580;28;20193;-67
2023/01/28 09:05:11;;;;;;;7.73;7.03;;;;;;;2.08;61.13;94625.75;5038117;28;20209;-66
2023/01/28 09:07:37;;;;;;;7.33;6.63;;;;;;;2.05;61.89;94625.16;5043621;28;20236;-67
2023/01/28 09:10:04;;;;;;;8.50;7.70;;;;;;;1.90;62.86;94621.91;5039813;28;20240;-69
2023/01/28 09:12:30;;;;;;;7.90;7.20;;;;;;;2.15;61.84;94626.97;5048163;28;20224;-67
2023/01/28 09:14:56;;;;;;;8.00;7.20;;;;;;;2.20;60.62;94624.88;5046126;28;20249;-66
2023/01/28 09:17:22;;;;;;;9.17;7.07;;;;;;;2.27;60.23;94629.59;5056068;28;20220;-66
2023/01/28 09:19:47;;;;;;;8.00;7.20;;;;;;;2.20;60.87;94635.25;5050248;28;20255;-67
2023/01/28 09:22:13;;;;;;;8.37;7.07;;;;;;;2.00;61.34;94628.06;5053716;28;20304;-67
2023/01/28 09:24:39;;;;;;;8.63;7.83;;;;;;;1.97;61.64;94630.88;5050484;28;20225;-67
2023/01/28 09:27:04;;;;;;;8.93;8.13;;;;;;;2.01;61.93;94632.34;5054792;28;20216;-66
2023/01/28 09:29:29;;;;;;;8.63;7.73;;;;;;;2.13;61.79;94626.25;5059082;28;21007;-67
2023/01/28 09:31:55;;;;;;;9.93;9.00;;;;;;;2.45;61.08;94622.25;5051623;28;20221;-68
2023/01/28 09:34:20;;;;;;;9.87;8.87;;;;;;;2.34;60.88;94626.47;5050065;28;20253;-67
2023/01/28 09:36:46;;;;;;;9.00;8.10;;;;;;;2.48;60.87;94625.44;5054758;28;20243;-68
2023/01/28 09:39:11;;;;;;;8.77;7.97;;;;;;;2.30;61.19;94616.41;5053522;28;20232;-67
2023/01/28 09:42:14;;;;;;;9.07;8.17;;;;;;;2.50;60.59;94628.78;5051335;28;20201;-67
2023/01/28 09:45:04;;;;;;;8.67;7.73;;;;;;;2.45;60.44;94630.06;5052404;28;20221;-66
2023/01/28 09:47:36;;;;;;;9.10;8.10;;;;;;;2.07;61.58;94625.88;5051414;28;20228;-66
2023/01/28 09:50:07;;;;;;;9.43;8.53;;;;;;;2.16;61.88;94639.00;5057467;28;20240;-66
2023/01/28 09:52:39;;;;;;;10.07;9.07;;;;;;;2.35;61.34;94632.47;5032721;28;20229;-67
2023/01/28 09:55:23;;;;;;;9.00;8.20;;;;;;;2.23;61.75;94615.22;5053936;28;20471;-67
2023/01/28 09:57:52;;;;;;;9.37;8.47;;;;;;;2.33;61.75;94626.59;5049319;28;20238;-67
2023/01/28 10:00:21;;;;;;;10.43;9.43;;;;;;;2.47;61.70;94617.78;5053255;28;20236;-67
2023/01/28 10:03:25;;;;;;;9.07;8.17;;;;;;;2.17;62.39;94624.28;5058847;28;20190;-66
2023/01/28 10:06:28;;;;;;;9.37;8.47;;;;;;;2.36;61.43;94616.00;5041492;28;20229;-66
2023/01/28 10:09:03;;;;;;;9.27;8.37;;;;;;;2.19;61.86;94628.41;5055099;28;20205;-66
2023/01/28 10:11:44;;;;;;;9.77;8.83;;;;;;;2.10;61.97;94623.88;5051347;28;20189;-66
2023/01/28 10:14:27;;;;;;;8.60;7.80;;;;;;;2.24;61.68;94609.91;5051556;28;20249;-67
2023/01/28 10:17:09;;;;;;;9.63;8.63;;;;;;;2.38;61.89;94616.72;5052523;28;20221;-66
2023/01/28 10:19:42;;;;;;;9.90;9.00;;;;;;;2.15;62.11;94610.59;5053522;28;20236;-67
2023/01/28 10:22:25;;;;;;;10.43;9.43;;;;;;;1.82;63.29;94617.25;5050800;28;20253;-66
2023/01/28 10:25:09;;;;;;;10.77;9.70;;;;;;;2.00;62.97;94622.88;5051330;28;20229;-67
2023/01/28 10:27:36;;;;;;;11.17;10.03;;;;;;;1.84;63.69;94623.13;5035457;28;20240;-66
2023/01/28 10:30:19;;;;;;;10.40;9.40;;;;;;;2.12;63.16;94626.38;5052352;28;20194;-67
2023/01/28 10:33:04;;;;;;;10.73;9.63;;;;;;;2.16;62.66;94620.84;5043073;28;20569;-67
2023/01/28 10:35:38;;;;;;;11.13;9.93;;;;;;;2.12;62.77;94611.63;5049429;28;20229;-67
2023/01/28 10:38:07;;;;;;;11.10;10.10;;;;;;;2.28;62.80;94620.91;5049408;28;20213;-67
2023/01/28 10:40:33;;;;;;;10.23;9.13;;;;;;;2.30;62.57;94619.88;5046316;28;20225;-67
2023/01/28 10:42:58;;;;;;;9.97;9.03;;;;;;;2.28;62.54;94621.72;5051502;28;20283;-67
2023/01/28 10:45:36;;;;;;;10.40;9.40;;;;;;;2.36;62.09;94608.22;5052312;28;20228;-67
2023/01/28 10:48:23;;;;;;;9.87;8.87;;;;;;;2.35;62.38;94612.56;5052587;28;20235;-67
2023/01/28 10:50:55;;;;;;;9.10;8.20;;;;;;;2.39;61.87;94614.00;5051557;28;20198;-67
2023/01/28 10:53:34;;;;;;;9.97;9.07;;;;;;;2.35;62.42;94609.97;5047632;28;20263;-68
2023/01/28 10:56:01;;;;;;;8.67;7.77;;;;;;;2.53;61.90;94604.38;5041768;28;20236;-68
2023/01/28 10:58:30;;;;;;;10.10;9.10;;;;;;;2.38;62.98;94611.53;5040162;28;20232;-67
2023/01/28 11:01:01;;;;;;;8.83;8.03;;;;;;;2.57;60.71;94611.81;5043288;28;20206;-68
2023/01/28 11:03:30;;;;;;;8.73;7.83;;;;;;;2.63;60.63;94607.94;5057218;28;20217;-69
2023/01/28 11:05:57;;;;;;;8.67;7.87;;;;;;;2.92;59.36;94613.56;5038976;28;20193;-66
2023/01/28 11:08:26;;;;;;;8.57;7.77;;;;;;;2.65;60.43;94609.47;5043967;28;20228;-70
2023/01/28 11:10:53;;;;;;;9.47;8.57;;;;;;;2.87;59.55;94610.47;5037726;28;20210;-71
2023/01/28 11:13:24;;;;;;;8.57;7.77;;;;;;;2.69;59.80;94614.44;5043159;28;20222;-68
2023/01/28 11:15:52;;;;;;;8.40;7.60;;;;;;;2.72;59.94;94607.25;5044063;28;20214;-69
2023/01/28 11:18:24;;;;;;;8.93;8.03;;;;;;;2.74;59.82;94609.72;5057641;28;20228;-66
2023/01/28 11:20:58;;;;;;;9.50;8.60;;;;;;;2.90;60.59;94601.63;5052105;28;20234;-68
2023/01/28 11:23:30;;;;;;;8.63;7.83;;;;;;;2.96;59.95;94599.38;5048167;28;20181;-69
2023/01/28 11:26:13;;;;;;;8.93;8.03;;;;;;;3.00;59.23;94597.41;5048827;28;20221;-68
2023/01/28 11:28:41;;;;;;;9.80;8.90;;;;;;;2.86;59.50;94595.81;5050685;28;20227;-69
2023/01/28 11:31:08;;;;;;;9.50;8.70;;;;;;;2.91;59.76;94600.66;5062916;28;20266;-67
2023/01/28 11:33:42;;;;;;;9.33;8.43;;;;;;;3.09;59.64;94600.09;5053334;28;20247;-67
2023/01/28 11:36:14;;;;;;;9.40;8.57;;;;;;;3.32;58.05;94607.94;5048357;28;20185;-69
2023/01/28 11:38:55;;;;;;;8.80;7.80;;;;;;;3.15;58.38;94603.19;5051842;28;20197;-69
2023/01/28 11:41:34;;;;;;;9.03;8.23;;;;;;;2.96;59.18;94601.97;5052180;28;20216;-69
2023/01/28 11:44:16;;;;;;;9.17;8.27;;;;;;;2.79;59.61;94608.44;5064803;28;20277;-69
2023/01/28 11:47:00;;;;;;;9.40;8.50;;;;;;;2.96;59.50;94601.16;5051312;28;20680;-68
2023/01/28 11:49:34;;;;;;;9.23;8.33;;;;;;;3.02;59.13;94593.75;5050711;28;20216;-69
2023/01/28 11:52:25;;;;;;;9.60;8.70;;;;;;;3.17;58.49;94590.91;5061610;28;20220;-69
2023/01/28 11:55:09;;;;;;;9.13;8.23;;;;;;;3.11;58.99;94587.00;5057141;28;20252;-68
2023/01/28 11:57:52;;;;;;;10.80;8.63;;;;;;;3.48;58.75;94597.19;5044868;28;20225;-67
2023/01/28 12:00:28;;;;;;;8.00;7.30;;;;;;;3.43;57.89;94594.09;5050700;28;20228;-69
2023/01/28 12:03:14;;;;;;;8.40;7.60;;;;;;;3.27;57.25;94597.06;5052564;28;20226;-69
2023/01/28 12:05:54;;;;;;;7.83;7.13;;;;;;;3.20;57.64;94596.69;5050360;28;20193;-69
2023/01/28 12:08:29;;;;;;;8.10;7.30;;;;;;;3.42;57.08;94593.28;5050116;28;20302;-70
2023/01/28 12:11:09;;;;;;;7.87;7.17;;;;;;;3.34;56.78;94593.03;5044867;28;20277;-68
2023/01/28 12:13:38;;;;;;;8.00;7.23;;;;;;;3.41;56.79;94599.41;5047650;28;20274;-68
2023/01/28 12:16:31;;;;;;;7.40;6.60;;;;;;;3.26;57.48;94597.97;5051840;28;20229;-67
2023/01/28 12:19:13;;;;;;;8.67;7.87;;;;;;;3.37;57.77;94592.81;5048447;28;20237;-69